createdAt,value
2018-07-30T00:00:47.353Z,24.50
2018-07-30T00:03:16.441Z,24.50
2018-07-30T00:05:45.421Z,24.50
2018-07-30T00:08:14.416Z,24.50
2018-07-30T00:10:43.491Z,24.50
2018-07-30T00:13:12.472Z,24.50
2018-07-30T00:15:41.458Z,24.50
2018-07-30T00:18:10.444Z,24.40
2018-07-30T00:20:39.436Z,24.40
2018-07-30T00:23:08.586Z,24.50
2018-07-30T00:25:37.589Z,24.50
2018-07-30T00:28:06.810Z,24.40
2018-07-30T00:30:35.815Z,24.40
2018-07-30T00:33:04.810Z,24.40
2018-07-30T00:35:33.786Z,24.40
2018-07-30T00:38:02.762Z,24.40
2018-07-30T00:40:31.818Z,24.40
2018-07-30T00:43:00.782Z,24.40
2018-07-30T00:45:29.857Z,24.30
2018-07-30T00:47:58.936Z,24.40
2018-07-30T00:50:28.340Z,24.40
2018-07-30T00:52:57.334Z,24.30
2018-07-30T00:55:26.288Z,24.30
2018-07-30T00:57:55.318Z,24.30
2018-07-30T01:00:24.357Z,24.30
2018-07-30T01:02:53.343Z,24.30
2018-07-30T01:05:22.342Z,24.30
2018-07-30T01:07:51.378Z,24.30
2018-07-30T01:10:20.384Z,24.30
2018-07-30T01:12:49.447Z,24.30
2018-07-30T01:15:18.448Z,24.30
2018-07-30T01:17:47.435Z,24.30
2018-07-30T01:22:45.174Z,24.30
2018-07-30T01:25:14.152Z,24.30
2018-07-30T01:27:43.161Z,24.30
2018-07-30T01:30:12.344Z,24.30
2018-07-30T01:32:41.332Z,24.30
2018-07-30T01:35:10.384Z,24.30
2018-07-30T01:37:39.337Z,24.30
2018-07-30T01:40:08.369Z,24.30
2018-07-30T01:42:37.381Z,24.30
2018-07-30T01:47:35.079Z,24.30
2018-07-30T01:50:04.485Z,24.20
2018-07-30T01:52:33.497Z,24.20
2018-07-30T01:55:02.575Z,24.20
2018-07-30T01:57:31.613Z,24.20
2018-07-30T02:00:00.596Z,24.20
2018-07-30T02:02:29.617Z,24.20
2018-07-30T02:04:59.905Z,24.20
2018-07-30T02:07:28.895Z,24.10
2018-07-30T02:09:57.898Z,24.10
2018-07-30T02:12:26.951Z,24.10
2018-07-30T02:14:55.993Z,24.10
2018-07-30T02:17:24.965Z,24.00
2018-07-30T02:19:53.925Z,24.00
2018-07-30T02:22:22.937Z,24.00
2018-07-30T02:24:52.033Z,23.90
2018-07-30T02:27:21.020Z,23.90
2018-07-30T02:29:50.209Z,23.90
2018-07-30T02:32:19.221Z,23.90
2018-07-30T02:34:48.201Z,23.90
2018-07-30T02:37:17.297Z,23.90
2018-07-30T02:39:46.292Z,23.90
2018-07-30T02:42:15.391Z,23.90
2018-07-30T02:44:44.365Z,23.80
2018-07-30T02:47:13.344Z,23.90
2018-07-30T02:49:42.299Z,23.90
2018-07-30T02:52:11.350Z,23.80
2018-07-30T02:54:40.359Z,23.80
2018-07-30T02:57:09.333Z,23.80
2018-07-30T02:59:38.326Z,23.80
2018-07-30T03:04:36.001Z,23.80
2018-07-30T03:09:33.675Z,23.70
2018-07-30T03:12:02.683Z,23.70
2018-07-30T03:14:31.667Z,23.70
2018-07-30T03:17:00.669Z,23.70
2018-07-30T03:19:29.623Z,23.70
2018-07-30T03:21:58.655Z,23.70
2018-07-30T03:24:27.618Z,23.60
2018-07-30T03:26:56.631Z,23.70
2018-07-30T03:29:25.635Z,23.60
2018-07-30T03:31:54.629Z,23.60
2018-07-30T03:34:23.605Z,23.60
2018-07-30T03:36:52.587Z,23.50
2018-07-30T03:39:21.577Z,23.50
2018-07-30T03:41:50.629Z,23.50
2018-07-30T03:44:19.801Z,23.50
2018-07-30T03:46:48.801Z,23.40
2018-07-30T03:49:17.795Z,23.40
2018-07-30T03:51:46.983Z,23.40
2018-07-30T03:54:15.992Z,23.30
2018-07-30T03:56:44.944Z,23.30
2018-07-30T03:59:13.959Z,23.20
2018-07-30T04:01:43.075Z,23.20
2018-07-30T04:04:12.119Z,23.20
2018-07-30T04:06:41.153Z,23.10
2018-07-30T04:09:10.187Z,23.10
2018-07-30T04:11:39.197Z,23.00
2018-07-30T04:14:08.257Z,23.00
2018-07-30T04:16:41.803Z,23.00
2018-07-30T04:19:10.818Z,22.90
2018-07-30T04:21:39.776Z,22.90
2018-07-30T04:24:08.817Z,22.90
2018-07-30T04:26:37.916Z,22.90
2018-07-30T04:29:07.094Z,22.90
2018-07-30T04:31:36.104Z,22.90
2018-07-30T04:34:05.424Z,22.90
2018-07-30T04:36:34.390Z,22.90
2018-07-30T04:41:32.134Z,23.00
2018-07-30T04:44:01.141Z,23.00
2018-07-30T04:46:30.154Z,23.10
2018-07-30T04:48:59.228Z,23.10
2018-07-30T04:51:28.973Z,23.20
2018-07-30T04:53:58.174Z,23.30
2018-07-30T04:56:27.140Z,23.40
2018-07-30T04:58:56.377Z,23.50
2018-07-30T05:01:25.370Z,23.60
2018-07-30T05:03:54.779Z,23.70
2018-07-30T05:06:23.850Z,23.80
2018-07-30T05:08:53.047Z,23.80
2018-07-30T05:11:22.541Z,23.90
2018-07-30T05:13:51.678Z,23.90
2018-07-30T05:16:20.704Z,23.90
2018-07-30T05:18:49.720Z,23.90
2018-07-30T05:21:18.801Z,24.00
2018-07-30T05:23:47.821Z,24.00
2018-07-30T05:26:16.791Z,24.00
2018-07-30T05:28:45.803Z,23.90
2018-07-30T05:31:14.821Z,23.90
2018-07-30T05:33:43.886Z,23.90
2018-07-30T05:36:12.869Z,23.90
2018-07-30T05:38:41.904Z,23.90
2018-07-30T05:41:10.930Z,23.90
2018-07-30T05:43:39.996Z,23.90
2018-07-30T05:46:09.019Z,23.90
2018-07-30T05:48:37.968Z,23.90
2018-07-30T05:51:07.010Z,23.90
2018-07-30T05:53:36.040Z,23.90
2018-07-30T05:56:05.080Z,23.90
2018-07-30T05:58:34.100Z,23.90
2018-07-30T06:01:03.171Z,24.00
2018-07-30T06:03:32.160Z,24.00
2018-07-30T06:06:01.328Z,24.10
2018-07-30T06:08:30.316Z,24.10
2018-07-30T06:10:59.384Z,24.20
2018-07-30T06:13:28.400Z,24.20
2018-07-30T06:15:57.410Z,24.30
2018-07-30T06:18:26.428Z,24.40
2018-07-30T06:20:55.799Z,24.40
2018-07-30T06:23:24.769Z,24.50
2018-07-30T06:28:22.403Z,24.50
2018-07-30T06:30:51.422Z,24.60
2018-07-30T06:33:20.575Z,24.60
2018-07-30T06:35:49.672Z,24.60
2018-07-30T06:38:18.661Z,24.60
2018-07-30T06:40:47.693Z,24.60
2018-07-30T06:43:16.707Z,24.60
2018-07-30T06:45:45.749Z,24.60
2018-07-30T06:48:14.716Z,24.60
2018-07-30T06:50:43.686Z,24.60
2018-07-30T06:53:12.784Z,24.60
2018-07-30T06:55:41.796Z,24.60
2018-07-30T06:58:10.759Z,24.60
2018-07-30T07:00:39.797Z,24.60
2018-07-30T07:03:08.920Z,24.60
2018-07-30T07:05:37.933Z,24.60
2018-07-30T07:08:06.965Z,24.70
2018-07-30T07:13:04.766Z,24.80
2018-07-30T07:15:33.770Z,24.80
2018-07-30T07:18:02.777Z,24.80
2018-07-30T07:20:31.760Z,24.90
2018-07-30T07:23:00.861Z,24.90
2018-07-30T07:25:29.925Z,25.00
2018-07-30T07:27:58.904Z,25.00
2018-07-30T07:30:27.881Z,25.00
2018-07-30T07:32:56.958Z,25.00
2018-07-30T07:35:26.158Z,25.00
2018-07-30T07:37:55.137Z,25.10
2018-07-30T07:40:24.270Z,25.10
2018-07-30T07:42:53.213Z,25.20
2018-07-30T07:45:22.259Z,25.20
2018-07-30T07:47:51.241Z,25.30
2018-07-30T07:50:20.443Z,25.30
2018-07-30T07:52:49.351Z,25.30
2018-07-30T07:55:18.417Z,25.40
2018-07-30T07:57:47.537Z,25.50
2018-07-30T08:00:16.489Z,25.50
2018-07-30T08:02:45.513Z,25.50
2018-07-30T08:05:14.565Z,25.50
2018-07-30T08:07:43.569Z,25.60
2018-07-30T08:10:12.582Z,25.80
2018-07-30T08:12:41.582Z,25.90
2018-07-30T08:15:10.636Z,26.00
2018-07-30T08:17:39.649Z,26.00
2018-07-30T08:20:09.544Z,26.10
2018-07-30T08:22:38.816Z,26.20
2018-07-30T08:25:10.164Z,26.40
2018-07-30T08:27:39.187Z,26.50
2018-07-30T08:30:08.972Z,26.60
2018-07-30T08:32:38.283Z,26.70
2018-07-30T08:35:07.493Z,26.90
2018-07-30T08:37:36.624Z,26.90
2018-07-30T08:40:06.830Z,27.00
2018-07-30T08:42:35.885Z,26.90
2018-07-30T08:45:05.963Z,27.00
2018-07-30T08:47:35.006Z,27.00
2018-07-30T08:50:04.134Z,27.10
2018-07-30T08:52:33.397Z,27.20
2018-07-30T08:57:31.300Z,27.40
2018-07-30T09:00:00.500Z,27.40
2018-07-30T09:02:29.545Z,27.40
2018-07-30T09:04:58.569Z,27.30
2018-07-30T09:07:27.566Z,27.40
2018-07-30T09:09:56.618Z,27.40
2018-07-30T09:12:25.712Z,27.40
2018-07-30T09:14:54.721Z,27.40
2018-07-30T09:17:23.766Z,27.40
2018-07-30T09:19:52.790Z,27.30
2018-07-30T09:22:21.835Z,27.40
2018-07-30T09:24:50.909Z,27.30
2018-07-30T09:27:19.937Z,27.30
2018-07-30T09:29:48.953Z,27.30
2018-07-30T09:32:33.289Z,27.40
2018-07-30T09:35:04.133Z,27.50
2018-07-30T09:37:33.181Z,27.60
2018-07-30T09:40:02.311Z,27.60
2018-07-30T09:42:31.271Z,27.70
2018-07-30T09:45:00.309Z,27.90
2018-07-30T09:47:29.270Z,28.00
2018-07-30T09:49:58.221Z,28.10
2018-07-30T09:52:27.239Z,28.20
2018-07-30T09:54:56.261Z,28.20
2018-07-30T09:57:25.317Z,28.10
2018-07-30T09:59:54.297Z,28.20
2018-07-30T10:02:23.282Z,28.20
2018-07-30T10:04:52.281Z,28.40
2018-07-30T10:07:21.345Z,28.60
2018-07-30T10:09:50.317Z,28.60
2018-07-30T10:12:19.317Z,28.60
2018-07-30T10:14:48.308Z,28.70
2018-07-30T10:17:17.289Z,28.70
2018-07-30T10:19:46.278Z,28.70
2018-07-30T10:22:15.249Z,28.80
2018-07-30T10:24:44.233Z,28.90
2018-07-30T10:27:13.202Z,29.00
2018-07-30T10:29:42.241Z,29.10
2018-07-30T10:32:11.293Z,29.20
2018-07-30T10:34:40.254Z,29.30
2018-07-30T10:37:09.253Z,29.40
2018-07-30T10:39:38.229Z,29.50
2018-07-30T10:42:07.215Z,29.60
2018-07-30T10:44:36.217Z,29.70
2018-07-30T10:47:05.459Z,29.70
2018-07-30T10:49:34.413Z,29.70
2018-07-30T10:52:03.424Z,29.70
2018-07-30T10:54:32.395Z,29.70
2018-07-30T10:57:01.397Z,29.70
2018-07-30T10:59:30.409Z,29.70
2018-07-30T11:01:59.461Z,29.80
2018-07-30T11:04:28.499Z,29.90
2018-07-30T11:06:57.553Z,30.00
2018-07-30T11:09:26.776Z,30.10
2018-07-30T11:11:55.575Z,30.20
2018-07-30T11:14:24.592Z,30.30
2018-07-30T11:16:53.744Z,30.40
2018-07-30T11:19:22.740Z,30.50
2018-07-30T11:21:51.835Z,30.50
2018-07-30T11:24:20.836Z,30.60
2018-07-30T11:26:49.852Z,30.60
2018-07-30T11:29:18.846Z,30.70
2018-07-30T11:31:47.995Z,30.70
2018-07-30T11:34:16.958Z,30.70
2018-07-30T11:36:45.958Z,30.80
2018-07-30T11:39:14.913Z,30.80
2018-07-30T11:41:44.094Z,30.90
2018-07-30T11:44:13.111Z,30.90
2018-07-30T11:46:42.119Z,30.90
2018-07-30T11:49:11.104Z,30.80
2018-07-30T11:51:40.155Z,30.80
2018-07-30T11:54:09.360Z,30.80
2018-07-30T11:56:38.400Z,30.90
2018-07-30T11:59:07.919Z,31.00
2018-07-30T12:01:36.987Z,31.00
2018-07-30T12:04:05.970Z,31.20
2018-07-30T12:06:34.966Z,31.20
2018-07-30T12:09:05.186Z,31.30
2018-07-30T12:11:34.285Z,31.30
2018-07-30T12:14:03.261Z,31.20
2018-07-30T12:19:00.918Z,31.30
2018-07-30T12:21:29.920Z,31.40
2018-07-30T12:23:58.913Z,31.40
2018-07-30T12:28:56.553Z,31.50
2018-07-30T12:31:25.536Z,31.60
2018-07-30T12:33:54.598Z,31.60
2018-07-30T12:36:23.611Z,31.50
2018-07-30T12:38:52.656Z,31.60
2018-07-30T12:41:21.623Z,31.50
2018-07-30T12:43:50.662Z,31.50
2018-07-30T12:46:19.692Z,31.40
2018-07-30T12:48:48.727Z,31.30
2018-07-30T12:53:46.534Z,31.40
2018-07-30T12:56:15.526Z,31.60
2018-07-30T13:01:13.137Z,31.60
2018-07-30T13:03:42.161Z,31.60
2018-07-30T13:06:11.157Z,31.60
2018-07-30T13:08:40.143Z,31.60
2018-07-30T13:11:09.124Z,31.60
2018-07-30T13:13:38.114Z,31.70
2018-07-30T13:16:07.261Z,31.70
2018-07-30T13:21:04.933Z,31.80
2018-07-30T13:23:33.949Z,31.90
2018-07-30T13:26:02.941Z,31.80
2018-07-30T13:28:31.945Z,31.80
2018-07-30T13:31:00.999Z,31.90
2018-07-30T13:33:29.997Z,32.00
2018-07-30T13:35:59.093Z,32.20
2018-07-30T13:38:28.125Z,32.20
2018-07-30T13:40:57.095Z,32.20
2018-07-30T13:43:26.045Z,32.20
2018-07-30T13:45:55.073Z,32.30
2018-07-30T13:48:24.125Z,32.30
2018-07-30T13:50:53.099Z,32.30
2018-07-30T13:53:22.042Z,32.30
2018-07-30T13:55:51.025Z,32.30
2018-07-30T13:58:20.013Z,32.30
2018-07-30T14:03:17.645Z,32.50
2018-07-30T14:05:46.618Z,32.40
2018-07-30T14:08:15.635Z,32.40
2018-07-30T14:10:44.835Z,32.50
2018-07-30T14:13:13.813Z,32.50
2018-07-30T14:15:42.829Z,32.50
2018-07-30T14:18:12.713Z,32.50
2018-07-30T14:20:41.843Z,32.60
2018-07-30T14:23:10.930Z,32.70
2018-07-30T14:25:39.923Z,32.70
2018-07-30T14:28:09.025Z,32.70
2018-07-30T14:30:38.164Z,32.70
2018-07-30T14:33:07.185Z,32.70
2018-07-30T14:35:36.467Z,32.60
2018-07-30T14:38:05.522Z,32.50
2018-07-30T14:40:34.541Z,32.50
2018-07-30T14:43:03.520Z,32.50
2018-07-30T14:45:32.564Z,32.50
2018-07-30T14:48:01.608Z,32.60
2018-07-30T14:50:30.621Z,32.60
2018-07-30T14:52:59.605Z,32.70
2018-07-30T14:55:28.614Z,32.70
2018-07-30T14:57:57.598Z,32.60
2018-07-30T15:00:26.739Z,32.70
2018-07-30T15:02:55.757Z,32.70
2018-07-30T15:05:24.817Z,32.60
2018-07-30T15:07:53.813Z,32.50
2018-07-30T15:10:22.912Z,32.40
2018-07-30T15:12:51.952Z,32.40
2018-07-30T15:15:20.918Z,32.30
2018-07-30T15:17:50.004Z,32.20
2018-07-30T15:20:19.676Z,32.20
2018-07-30T15:22:48.674Z,32.10
2018-07-30T15:25:17.700Z,32.10
2018-07-30T15:27:46.784Z,32.20
2018-07-30T15:30:15.794Z,32.20
2018-07-30T15:32:44.894Z,32.20
2018-07-30T15:35:13.888Z,32.30
2018-07-30T15:37:42.940Z,32.40
2018-07-30T15:40:11.986Z,32.50
2018-07-30T15:42:41.002Z,32.50
2018-07-30T15:45:10.062Z,32.60
2018-07-30T15:47:39.130Z,32.70
2018-07-30T15:50:08.150Z,32.70
2018-07-30T15:52:37.156Z,32.70
2018-07-30T15:55:06.177Z,32.70
2018-07-30T15:57:35.156Z,32.80
2018-07-30T16:02:34.192Z,32.70
2018-07-30T16:07:32.323Z,32.60
2018-07-30T16:12:30.296Z,32.50
2018-07-30T16:14:59.428Z,32.40
2018-07-30T16:17:28.411Z,32.40
2018-07-30T16:19:57.511Z,32.30
2018-07-30T16:22:26.529Z,32.30
2018-07-30T16:24:55.557Z,32.30
2018-07-30T16:27:24.634Z,32.30
2018-07-30T16:29:53.731Z,32.20
2018-07-30T16:32:22.791Z,32.10
2018-07-30T16:34:51.840Z,32.10
2018-07-30T16:37:20.849Z,32.20
2018-07-30T16:39:49.869Z,32.30
2018-07-30T16:42:18.834Z,32.40
2018-07-30T16:44:48.278Z,32.50
2018-07-30T16:47:17.408Z,32.50
2018-07-30T16:49:46.401Z,32.50
2018-07-30T16:52:15.523Z,32.50
2018-07-30T16:54:44.565Z,32.50
2018-07-30T16:57:13.588Z,32.40
2018-07-30T16:59:42.557Z,32.30
2018-07-30T17:02:11.557Z,32.30
2018-07-30T17:04:40.557Z,32.30
2018-07-30T17:07:09.605Z,32.30
2018-07-30T17:09:38.612Z,32.40
2018-07-30T17:12:07.694Z,32.50
2018-07-30T17:14:36.656Z,32.50
2018-07-30T17:17:05.680Z,32.50
2018-07-30T17:19:34.738Z,32.40
2018-07-30T17:22:03.768Z,32.40
2018-07-30T17:24:32.968Z,32.30
2018-07-30T17:27:02.058Z,32.40
2018-07-30T17:29:31.115Z,32.40
2018-07-30T17:32:00.244Z,32.30
2018-07-30T17:34:29.916Z,32.30
2018-07-30T17:36:59.007Z,32.20
2018-07-30T17:39:28.112Z,32.20
2018-07-30T17:41:57.120Z,32.20
2018-07-30T17:44:26.338Z,32.20
2018-07-30T17:46:55.319Z,32.10
2018-07-30T17:49:24.388Z,32.10
2018-07-30T17:51:53.358Z,32.00
2018-07-30T17:54:22.336Z,31.90
2018-07-30T17:56:51.328Z,31.90
2018-07-30T17:59:20.337Z,31.90
2018-07-30T18:01:49.330Z,31.90
2018-07-30T18:04:18.852Z,31.90
2018-07-30T18:06:47.902Z,32.00
2018-07-30T18:09:17.242Z,31.90
2018-07-30T18:11:46.300Z,31.90
2018-07-30T18:14:15.292Z,31.90
2018-07-30T18:16:44.306Z,31.70
2018-07-30T18:19:13.271Z,31.70
2018-07-30T18:21:42.300Z,31.60
2018-07-30T18:24:11.291Z,31.60
2018-07-30T18:26:40.308Z,31.50
2018-07-30T18:29:09.290Z,31.40
2018-07-30T18:31:38.288Z,31.40
2018-07-30T18:34:07.265Z,31.30
2018-07-30T18:36:36.294Z,31.20
2018-07-30T18:39:06.901Z,31.10
2018-07-30T18:41:35.944Z,30.90
2018-07-30T18:46:33.638Z,30.30
2018-07-30T18:49:02.633Z,30.00
2018-07-30T18:51:31.616Z,29.60
2018-07-30T18:54:00.624Z,29.40
2018-07-30T18:56:29.734Z,29.30
2018-07-30T19:01:34.005Z,28.80
2018-07-30T19:04:02.980Z,28.50
2018-07-30T19:06:32.140Z,28.20
2018-07-30T19:09:01.132Z,28.10
2018-07-30T19:11:30.096Z,27.50
2018-07-30T19:13:59.100Z,27.30
2018-07-30T19:16:28.144Z,27.30
2018-07-30T19:18:57.238Z,27.20
2018-07-30T19:21:26.326Z,27.20
2018-07-30T19:23:55.554Z,27.20
2018-07-30T19:26:24.630Z,27.00
2018-07-30T19:28:53.644Z,26.90
2018-07-30T19:31:22.716Z,26.80
2018-07-30T19:33:51.714Z,26.40
2018-07-30T19:36:20.678Z,26.20
2018-07-30T19:38:49.774Z,26.10
2018-07-30T19:41:18.969Z,25.90
2018-07-30T19:43:48.138Z,25.90
2018-07-30T19:46:17.129Z,25.90
2018-07-30T19:48:46.157Z,25.80
2018-07-30T19:51:15.122Z,25.70
2018-07-30T19:53:44.244Z,25.70
2018-07-30T19:56:13.477Z,25.70
2018-07-30T19:58:43.016Z,25.60
2018-07-30T20:01:11.786Z,25.60
2018-07-30T20:03:40.833Z,25.50
2018-07-30T20:06:09.813Z,25.40
2018-07-30T20:08:38.835Z,25.40
2018-07-30T20:11:09.065Z,25.30
2018-07-30T20:13:38.377Z,25.30
2018-07-30T20:16:07.621Z,25.20
2018-07-30T20:18:36.871Z,25.20
2018-07-30T20:21:05.851Z,25.20
2018-07-30T20:23:34.835Z,25.00
2018-07-30T20:26:03.869Z,25.00
2018-07-30T20:28:32.913Z,25.00
2018-07-30T20:31:01.981Z,25.00
2018-07-30T20:33:32.022Z,24.90
2018-07-30T20:36:01.019Z,24.90
2018-07-30T20:38:30.217Z,24.90
2018-07-30T20:40:59.756Z,24.90
2018-07-30T20:43:29.033Z,24.80
2018-07-30T20:45:58.055Z,24.80
2018-07-30T20:48:27.137Z,24.80
2018-07-30T20:50:56.401Z,24.80
2018-07-30T20:53:26.261Z,24.80
2018-07-30T20:55:55.273Z,24.70
2018-07-30T20:58:24.327Z,24.70
2018-07-30T21:00:53.333Z,24.70
2018-07-30T21:03:22.408Z,24.60
2018-07-30T21:05:51.441Z,24.60
2018-07-30T21:08:20.472Z,24.60
2018-07-30T21:10:49.450Z,24.50
2018-07-30T21:13:18.445Z,24.50
2018-07-30T21:15:47.578Z,24.50
2018-07-30T21:18:16.678Z,24.50
2018-07-30T21:20:45.664Z,24.40
2018-07-30T21:23:14.720Z,24.40
2018-07-30T21:25:43.771Z,24.30
2018-07-30T21:28:13.040Z,24.30
2018-07-30T21:30:42.051Z,24.30
2018-07-30T21:33:11.248Z,24.30
2018-07-30T21:35:40.330Z,24.20
2018-07-30T21:38:09.370Z,24.20
2018-07-30T21:40:38.388Z,24.10
2018-07-30T21:43:07.398Z,24.10
2018-07-30T21:48:05.212Z,24.10
2018-07-30T21:50:34.215Z,24.00
2018-07-30T21:53:03.224Z,24.10
2018-07-30T21:55:32.201Z,24.00
2018-07-30T21:58:01.277Z,24.00
2018-07-30T22:00:30.932Z,24.00
2018-07-30T22:02:59.960Z,24.00
2018-07-30T22:05:29.010Z,24.00
2018-07-30T22:07:58.075Z,24.00
2018-07-30T22:10:27.104Z,24.00
2018-07-30T22:12:56.076Z,23.90
2018-07-30T22:15:25.072Z,23.90
2018-07-30T22:17:54.106Z,23.90
2018-07-30T22:20:23.146Z,23.90
2018-07-30T22:22:52.188Z,23.90
2018-07-30T22:25:21.152Z,23.90
2018-07-30T22:27:50.152Z,23.80
2018-07-30T22:30:19.256Z,23.80
2018-07-30T22:32:48.224Z,23.80
2018-07-30T22:35:17.198Z,23.80
2018-07-30T22:37:46.221Z,23.80
2018-07-30T22:40:15.289Z,23.80
2018-07-30T22:42:44.286Z,23.80
2018-07-30T22:45:13.298Z,23.80
2018-07-30T22:47:42.333Z,23.80
2018-07-30T22:50:11.353Z,23.70
2018-07-30T22:52:40.351Z,23.70
2018-07-30T22:55:09.333Z,23.70
2018-07-30T22:57:38.337Z,23.70
2018-07-30T23:00:07.486Z,23.60
2018-07-30T23:02:36.481Z,23.60
2018-07-30T23:05:05.933Z,23.60
2018-07-30T23:07:34.937Z,23.60
2018-07-30T23:10:03.992Z,23.60
2018-07-30T23:12:33.025Z,23.50
2018-07-30T23:15:01.981Z,23.50
2018-07-30T23:17:31.123Z,23.50
2018-07-30T23:20:00.313Z,23.60
2018-07-30T23:22:29.287Z,23.50
2018-07-30T23:24:58.244Z,23.50
2018-07-30T23:27:27.819Z,23.50
2018-07-30T23:29:56.983Z,23.50
2018-07-30T23:32:26.300Z,23.50
2018-07-30T23:34:55.284Z,23.50
2018-07-30T23:37:24.456Z,23.50
2018-07-30T23:42:22.066Z,23.50
2018-07-30T23:44:51.077Z,23.40
2018-07-30T23:47:20.071Z,23.40
2018-07-30T23:49:49.101Z,23.40
2018-07-30T23:52:18.088Z,23.40
2018-07-30T23:54:47.173Z,23.40
2018-07-30T23:57:16.111Z,23.40
2018-07-30T23:59:45.228Z,23.40
